Time;durP1;ratioP1;P1;durP2;ratioP2;P2;SDS_P1;SDS_P2;PMS_P1;PMS_P2;Temp;Humidity;BMP_temperature;BMP_pressure;BME280_temperature;BME280_humidity;BME280_pressure;Samples;Min_cycle;Max_cycle;Signal;HPM_P1;HPM_P2
2024/03/13 00:02:15;;;;;;;6.55;4.10;;;22.90;99.90;;;;;;5015845;28;20104;-42
2024/03/13 00:04:44;;;;;;;4.83;3.93;;;22.90;99.90;;;;;;5033604;28;20486;-42
2024/03/13 00:07:10;;;;;;;6.35;3.97;;;22.90;99.90;;;;;;5033819;28;20385;-42
2024/03/13 00:09:46;;;;;;;5.23;3.70;;;22.90;99.90;;;;;;5033648;28;20028;-42
2024/03/13 00:12:15;;;;;;;6.38;3.70;;;22.90;99.90;;;;;;5033832;28;20021;-42
2024/03/13 00:14:45;;;;;;;6.35;4.07;;;22.90;99.90;;;;;;5033487;28;20028;-42
2024/03/13 00:17:11;;;;;;;5.97;4.35;;;22.90;99.90;;;;;;5033612;28;20374;-42
2024/03/13 00:19:37;;;;;;;5.30;3.90;;;22.90;99.90;;;;;;5015805;28;20071;-42
2024/03/13 00:22:06;;;;;;;5.60;4.22;;;22.80;99.90;;;;;;5033721;28;20100;-42
2024/03/13 00:24:32;;;;;;;4.60;3.47;;;22.80;99.90;;;;;;5033285;28;20029;-42
2024/03/13 00:26:57;;;;;;;5.72;4.25;;;22.80;99.90;;;;;;5033309;28;20554;-42
2024/03/13 00:29:26;;;;;;;5.95;3.88;;;22.80;99.90;;;;;;5033260;28;20044;-42
2024/03/13 00:31:53;;;;;;;6.43;4.63;;;22.80;99.90;;;;;;5033348;28;20022;-42
2024/03/13 00:34:20;;;;;;;6.47;4.22;;;22.80;99.90;;;;;;5033427;28;20445;-43
2024/03/13 00:36:47;;;;;;;6.17;4.43;;;22.80;99.90;;;;;;5033245;28;20017;-43
2024/03/13 00:39:13;;;;;;;6.97;4.45;;;22.70;99.90;;;;;;5033180;28;20262;-43
2024/03/13 00:41:39;;;;;;;5.70;3.80;;;22.80;99.90;;;;;;5033212;28;20432;-44
2024/03/13 00:44:06;;;;;;;5.88;4.20;;;22.70;99.90;;;;;;5033082;28;20492;-43
2024/03/13 00:46:32;;;;;;;4.60;3.78;;;22.70;99.90;;;;;;5033386;28;20492;-44
2024/03/13 00:48:58;;;;;;;6.22;4.28;;;22.70;99.90;;;;;;5032997;28;20030;-43
2024/03/13 00:51:24;;;;;;;6.15;4.43;;;22.70;99.90;;;;;;5032917;28;20021;-43
2024/03/13 00:53:50;;;;;;;5.57;4.30;;;22.70;99.90;;;;;;5033010;28;20486;-44
2024/03/13 00:56:16;;;;;;;6.63;4.65;;;22.70;99.90;;;;;;5032910;28;20108;-42
2024/03/13 00:58:42;;;;;;;4.93;3.83;;;22.70;99.90;;;;;;5032775;28;20056;-43
2024/03/13 01:01:12;;;;;;;6.05;4.30;;;22.70;99.90;;;;;;5033072;28;20065;-46
2024/03/13 01:03:38;;;;;;;5.28;3.80;;;22.60;99.90;;;;;;5032511;28;20520;-42
2024/03/13 01:06:06;;;;;;;6.10;3.90;;;22.70;99.90;;;;;;5032725;28;20103;-42
2024/03/13 01:08:34;;;;;;;5.78;4.28;;;22.70;99.90;;;;;;5014969;28;20844;-43
2024/03/13 01:11:00;;;;;;;5.25;4.30;;;22.60;99.90;;;;;;5032707;28;20064;-43
2024/03/13 01:13:29;;;;;;;5.15;4.55;;;22.60;99.90;;;;;;5032634;28;20037;-43
2024/03/13 01:15:55;;;;;;;6.95;4.80;;;22.60;99.90;;;;;;5032346;28;20018;-44
2024/03/13 01:18:21;;;;;;;5.38;4.35;;;22.60;99.90;;;;;;5032377;28;20033;-44
2024/03/13 01:20:49;;;;;;;6.38;4.43;;;22.60;99.90;;;;;;5032320;28;20068;-42
2024/03/13 01:23:15;;;;;;;5.80;4.32;;;22.60;99.90;;;;;;5014779;28;20075;-43
2024/03/13 01:25:41;;;;;;;6.45;4.82;;;22.60;99.90;;;;;;5032202;28;20021;-43
2024/03/13 01:28:07;;;;;;;5.88;4.63;;;22.60;99.90;;;;;;5032073;28;20470;-42
2024/03/13 01:30:33;;;;;;;6.82;4.68;;;22.60;99.90;;;;;;5032392;28;20071;-42
2024/03/13 01:32:59;;;;;;;7.65;5.22;;;22.50;99.90;;;;;;5014551;28;20032;-42
2024/03/13 01:35:26;;;;;;;7.07;4.53;;;22.50;99.90;;;;;;5032196;28;20040;-43
2024/03/13 01:38:01;;;;;;;5.95;4.60;;;22.50;99.90;;;;;;4997224;28;20046;-42
2024/03/13 01:57:14;;;;;;;5.00;4.47;;;22.40;99.90;;;;;;5032084;28;20032;-43
2024/03/13 02:02:21;;;;;;;7.07;5.20;;;22.40;99.90;;;;;;5014232;28;20127;-42
2024/03/13 02:02:35;;;;;;;5.97;4.88;;;22.40;99.90;;;;;;5030223;28;20471;-43
2024/03/13 02:05:02;;;;;;;7.68;5.85;;;22.40;99.90;;;;;;5031813;28;20091;-43
2024/03/13 02:07:28;;;;;;;7.18;5.43;;;22.40;99.90;;;;;;5030879;28;20079;-44
2024/03/13 02:09:55;;;;;;;8.18;5.68;;;22.40;99.90;;;;;;5031850;28;20036;-44
2024/03/13 02:12:21;;;;;;;5.95;4.50;;;22.40;99.90;;;;;;5031947;28;20021;-44
2024/03/13 02:14:47;;;;;;;7.72;5.63;;;22.40;99.90;;;;;;5014064;28;20561;-43
2024/03/13 02:17:13;;;;;;;8.82;5.53;;;22.30;99.90;;;;;;5031926;28;20029;-43
2024/03/13 02:19:40;;;;;;;7.88;5.90;;;22.30;99.90;;;;;;5031934;28;20025;-44
2024/03/13 02:22:07;;;;;;;8.35;6.22;;;22.30;99.90;;;;;;5031958;28;20465;-44
2024/03/13 02:24:33;;;;;;;7.65;5.65;;;22.30;99.90;;;;;;5031816;28;20092;-44
2024/03/13 02:27:00;;;;;;;7.65;5.70;;;22.30;99.90;;;;;;5031563;28;20527;-43
2024/03/13 02:29:28;;;;;;;7.72;5.55;;;22.30;99.90;;;;;;5031672;28;20044;-43
2024/03/13 02:31:54;;;;;;;6.43;5.25;;;22.30;99.90;;;;;;5031708;28;20025;-43
2024/03/13 02:34:20;;;;;;;9.55;5.60;;;22.30;99.90;;;;;;5013814;28;20390;-43
2024/03/13 02:36:47;;;;;;;8.88;5.60;;;22.30;99.90;;;;;;5031898;28;20429;-42
2024/03/13 02:39:19;;;;;;;9.05;6.53;;;22.20;99.90;;;;;;5031507;28;20021;-43
2024/03/13 02:41:45;;;;;;;7.07;5.80;;;22.20;99.90;;;;;;5031566;28;20494;-42
2024/03/13 02:44:11;;;;;;;7.57;6.10;;;22.20;99.90;;;;;;5014933;28;20049;-41
2024/03/13 02:46:37;;;;;;;9.07;6.32;;;22.20;99.90;;;;;;5046110;28;20103;-42
2024/03/13 02:49:04;;;;;;;7.53;5.93;;;22.20;99.90;;;;;;5051655;28;20017;-43
2024/03/13 02:51:30;;;;;;;11.95;7.07;;;22.20;99.90;;;;;;5029735;28;20032;-42
2024/03/13 02:53:56;;;;;;;11.30;6.60;;;22.20;99.90;;;;;;5052784;28;20017;-41
2024/03/13 02:56:22;;;;;;;8.95;6.35;;;22.20;99.90;;;;;;5054419;28;20028;-44
2024/03/13 02:58:48;;;;;;;9.35;6.63;;;22.20;99.90;;;;;;5054900;28;20444;-43
2024/03/13 03:01:16;;;;;;;11.60;6.38;;;22.20;99.90;;;;;;5059818;22;20406;-53
2024/03/13 03:03:41;;;;;;;10.00;6.35;;;22.10;99.90;;;;;;5017019;28;20037;-51
2024/03/13 03:06:07;;;;;;;10.30;7.07;;;22.20;99.90;;;;;;5035023;28;20030;-52
2024/03/13 03:08:37;;;;;;;9.52;7.05;;;22.20;99.90;;;;;;5034953;28;20052;-51
2024/03/13 03:11:03;;;;;;;8.20;6.13;;;22.10;99.90;;;;;;5034930;28;20024;-52
2024/03/13 03:13:35;;;;;;;8.18;5.85;;;22.10;99.90;;;;;;5034885;28;20057;-51
2024/03/13 03:16:00;;;;;;;8.40;6.05;;;22.10;99.90;;;;;;5034740;28;20046;-51
2024/03/13 03:18:26;;;;;;;26.92;8.00;;;22.10;99.90;;;;;;5034802;28;20067;-52
2024/03/13 03:20:53;;;;;;;10.05;6.65;;;22.10;99.90;;;;;;5017056;28;20068;-52
2024/03/13 03:23:19;;;;;;;12.23;7.32;;;22.10;99.90;;;;;;5034930;28;20091;-52
2024/03/13 03:25:45;;;;;;;10.20;7.20;;;22.10;99.90;;;;;;5032750;28;20022;-52
2024/03/13 03:28:13;;;;;;;23.80;7.75;;;22.10;99.90;;;;;;5025900;28;20041;-53
2024/03/13 03:30:43;;;;;;;11.88;7.43;;;22.10;99.90;;;;;;5033415;28;20417;-51
2024/03/13 03:33:15;;;;;;;11.90;6.78;;;22.10;99.90;;;;;;5032741;28;20021;-52
2024/03/13 03:35:44;;;;;;;10.25;7.28;;;22.10;99.90;;;;;;5032860;28;20470;-51
2024/03/13 03:38:10;;;;;;;10.65;7.10;;;22.10;99.90;;;;;;5032642;28;20025;-51
2024/03/13 03:40:36;;;;;;;10.38;6.55;;;22.10;99.90;;;;;;5032571;28;20486;-52
2024/03/13 03:43:03;;;;;;;10.98;7.55;;;22.00;99.90;;;;;;5032508;28;20033;-52
2024/03/13 03:45:29;;;;;;;9.70;6.55;;;22.10;99.90;;;;;;5015680;28;20083;-52
2024/03/13 03:47:55;;;;;;;10.27;6.88;;;22.00;99.90;;;;;;5033880;28;20109;-52
2024/03/13 03:50:21;;;;;;;10.43;7.03;;;22.00;99.90;;;;;;5034158;28;20184;-51
2024/03/13 03:52:47;;;;;;;11.00;7.30;;;22.00;99.90;;;;;;5034109;28;20021;-52
2024/03/13 03:55:14;;;;;;;9.70;6.30;;;22.00;99.90;;;;;;5000372;28;20022;-52
2024/03/13 03:57:40;;;;;;;10.70;6.35;;;22.00;99.90;;;;;;5034182;28;20105;-52
2024/03/13 04:00:12;;;;;;;10.13;7.13;;;22.00;99.90;;;;;;5032942;28;20025;-52
2024/03/13 04:02:42;;;;;;;9.90;7.22;;;22.00;99.90;;;;;;5045100;23;20079;-44
2024/03/13 04:05:08;;;;;;;12.00;7.18;;;21.90;99.90;;;;;;5033921;28;20029;-46
2024/03/13 04:07:39;;;;;;;11.90;6.82;;;21.90;99.90;;;;;;5033686;28;20115;-42
2024/03/13 04:10:05;;;;;;;10.68;6.45;;;21.90;99.90;;;;;;5033761;28;20041;-42
2024/03/13 04:12:34;;;;;;;10.40;6.97;;;21.90;99.90;;;;;;5033706;28;20040;-42
2024/03/13 04:15:02;;;;;;;10.30;7.07;;;21.90;99.90;;;;;;5033545;28;20104;-42
2024/03/13 04:17:28;;;;;;;10.52;6.60;;;21.90;99.90;;;;;;5033741;28;20061;-42
2024/03/13 04:19:54;;;;;;;10.45;6.82;;;21.90;99.90;;;;;;5033654;28;20029;-43
2024/03/13 04:22:19;;;;;;;9.18;6.32;;;21.90;99.90;;;;;;5033536;28;20470;-43
2024/03/13 04:24:45;;;;;;;11.23;7.15;;;21.90;99.90;;;;;;5033467;28;20072;-43
2024/03/13 04:27:11;;;;;;;12.07;7.70;;;21.80;99.90;;;;;;5033544;28;20383;-43
2024/03/13 04:29:37;;;;;;;11.40;7.13;;;21.90;99.90;;;;;;5033324;28;20029;-43
2024/03/13 04:32:04;;;;;;;9.77;7.13;;;21.80;99.90;;;;;;5033281;28;20017;-44
2024/03/13 04:34:30;;;;;;;11.32;6.70;;;21.80;99.90;;;;;;5033134;28;20029;-42
2024/03/13 04:36:56;;;;;;;11.70;6.95;;;21.80;99.90;;;;;;5032987;28;20395;-42
2024/03/13 04:39:21;;;;;;;10.40;7.03;;;21.80;99.90;;;;;;5033061;28;20028;-43
2024/03/13 04:41:49;;;;;;;11.98;7.88;;;21.80;99.90;;;;;;5033167;28;20051;-43
2024/03/13 04:44:16;;;;;;;10.38;6.63;;;21.80;99.90;;;;;;5015542;28;20032;-43
2024/03/13 04:46:43;;;;;;;10.43;7.45;;;21.80;99.90;;;;;;5015359;28;20037;-42
2024/03/13 04:49:10;;;;;;;13.88;8.10;;;21.80;99.90;;;;;;5032906;28;20025;-42
2024/03/13 04:51:40;;;;;;;10.52;6.82;;;21.70;99.90;;;;;;5032943;28;20029;-42
2024/03/13 04:54:08;;;;;;;11.48;6.95;;;21.70;99.90;;;;;;5012363;28;20026;-42
2024/03/13 04:56:34;;;;;;;13.60;7.68;;;21.70;99.90;;;;;;5011148;28;20330;-43
2024/03/13 04:59:00;;;;;;;9.40;6.78;;;21.70;99.90;;;;;;5012505;28;20057;-43
2024/03/13 05:01:26;;;;;;;9.90;6.82;;;21.70;99.90;;;;;;4992130;28;20100;-44
2024/03/13 05:03:52;;;;;;;9.35;6.30;;;21.70;99.90;;;;;;4992813;28;20109;-43
2024/03/13 05:06:21;;;;;;;10.15;6.57;;;21.70;99.90;;;;;;4993230;28;20025;-43
2024/03/13 05:08:48;;;;;;;11.32;7.18;;;21.70;99.90;;;;;;4992214;28;20030;-43
2024/03/13 05:11:14;;;;;;;10.98;7.03;;;21.70;99.90;;;;;;4993325;28;20014;-43
2024/03/13 05:13:40;;;;;;;9.60;7.32;;;21.60;99.90;;;;;;4993230;28;20428;-42
2024/03/13 05:16:06;;;;;;;9.50;6.72;;;21.70;99.90;;;;;;4993168;28;20027;-42
2024/03/13 05:18:34;;;;;;;8.85;6.55;;;21.60;99.90;;;;;;4993088;28;20030;-43
2024/03/13 05:21:01;;;;;;;10.48;7.00;;;21.60;99.90;;;;;;4993194;28;20046;-43
2024/03/13 05:23:27;;;;;;;10.53;7.07;;;21.60;99.90;;;;;;4993172;28;20030;-43
2024/03/13 05:25:55;;;;;;;11.85;6.75;;;21.60;99.90;;;;;;4993082;28;20018;-42
2024/03/13 05:28:25;;;;;;;9.95;6.72;;;21.60;99.90;;;;;;4993114;28;20076;-42
2024/03/13 05:30:51;;;;;;;9.65;6.88;;;21.60;99.90;;;;;;4992988;28;20026;-43
2024/03/13 05:33:17;;;;;;;8.25;5.72;;;21.60;99.90;;;;;;4992003;28;20081;-42
2024/03/13 05:35:43;;;;;;;10.90;6.68;;;21.60;99.90;;;;;;4993003;28;20019;-42
2024/03/13 05:38:09;;;;;;;11.90;6.55;;;21.60;99.90;;;;;;4992883;28;20030;-42
2024/03/13 05:40:35;;;;;;;13.50;6.77;;;21.50;99.90;;;;;;4992826;28;20045;-42
2024/03/13 05:43:01;;;;;;;9.27;5.88;;;21.60;99.90;;;;;;4992892;28;20029;-42
2024/03/13 05:45:27;;;;;;;10.55;6.53;;;21.50;99.90;;;;;;4992861;28;20026;-43
2024/03/13 05:47:53;;;;;;;10.38;5.90;;;21.50;99.90;;;;;;4992874;28;20130;-43
2024/03/13 05:50:19;;;;;;;8.93;6.00;;;21.50;99.90;;;;;;4992917;28;20023;-43
2024/03/13 05:52:47;;;;;;;9.48;6.50;;;21.50;99.90;;;;;;4992936;28;20088;-42
2024/03/13 05:55:16;;;;;;;8.65;5.82;;;21.50;99.90;;;;;;4992794;28;20076;-43
2024/03/13 05:57:42;;;;;;;9.93;6.75;;;21.50;99.90;;;;;;4992709;28;20022;-43
2024/03/13 06:00:12;;;;;;;10.48;6.50;;;21.50;99.90;;;;;;4992821;28;20027;-43
2024/03/13 06:02:38;;;;;;;8.82;5.60;;;21.50;99.90;;;;;;5010267;28;20085;-43
2024/03/13 06:05:11;;;;;;;8.50;6.13;;;21.50;99.90;;;;;;5012175;28;20105;-43
2024/03/13 06:07:38;;;;;;;9.75;5.82;;;21.50;99.90;;;;;;5012115;28;20172;-43
2024/03/13 06:10:05;;;;;;;7.40;5.07;;;21.40;99.90;;;;;;5012215;28;20018;-43
2024/03/13 06:12:33;;;;;;;9.00;6.00;;;21.50;99.90;;;;;;5012142;28;20048;-44
2024/03/13 06:14:59;;;;;;;9.85;6.55;;;21.50;99.90;;;;;;5023578;28;20022;-43
2024/03/13 06:17:24;;;;;;;8.95;5.78;;;21.40;99.90;;;;;;5025304;28;20105;-43
2024/03/13 06:19:50;;;;;;;8.50;5.82;;;21.40;99.90;;;;;;5029911;28;20083;-43
2024/03/13 06:22:16;;;;;;;6.75;4.93;;;21.40;99.90;;;;;;5031652;28;20032;-43
2024/03/13 06:24:42;;;;;;;9.50;6.03;;;21.40;99.90;;;;;;5017546;28;20359;-43
2024/03/13 06:27:15;;;;;;;10.20;5.80;;;21.40;99.90;;;;;;5034616;28;20030;-43
2024/03/13 06:30:00;;;;;;;7.43;5.38;;;21.40;99.90;;;;;;5035547;28;20044;-43
2024/03/13 06:32:28;;;;;;;8.73;5.25;;;21.40;99.90;;;;;;5017707;28;20036;-43
2024/03/13 06:34:57;;;;;;;;;;;21.40;99.90;;;;;;5035912;28;20108;-43
2024/03/13 06:37:27;;;;;;;7.20;4.57;;;21.40;99.90;;;;;;5035586;28;19905;-43
2024/03/13 06:39:57;;;;;;;7.32;5.57;;;21.40;99.90;;;;;;5017671;28;20018;-42
2024/03/13 06:42:26;;;;;;;7.90;5.10;;;21.40;99.90;;;;;;5035372;28;20394;-43
2024/03/13 06:44:53;;;;;;;6.90;5.10;;;21.40;99.90;;;;;;5035498;28;20021;-43
2024/03/13 06:47:19;;;;;;;7.18;5.35;;;21.30;99.90;;;;;;5035458;28;20033;-43
2024/03/13 06:49:45;;;;;;;7.45;4.50;;;21.40;99.90;;;;;;5035149;28;20439;-43
2024/03/13 06:52:13;;;;;;;6.40;4.68;;;21.30;99.90;;;;;;5035121;28;20022;-43
2024/03/13 06:54:40;;;;;;;7.07;4.85;;;21.30;99.90;;;;;;5035064;28;20072;-44
2024/03/13 06:57:14;;;;;;;7.20;4.18;;;21.40;99.90;;;;;;5035064;28;20030;-42
2024/03/13 06:59:44;;;;;;;5.35;3.70;;;21.30;99.90;;;;;;5035101;28;20022;-43
2024/03/13 07:02:14;;;;;;;7.93;5.20;;;21.30;99.90;;;;;;5034837;28;20405;-43
2024/03/13 07:04:40;;;;;;;7.38;4.70;;;21.30;99.90;;;;;;5034901;28;20026;-42
2024/03/13 07:07:05;;;;;;;7.78;4.75;;;21.30;99.90;;;;;;5034850;28;20041;-43
2024/03/13 07:09:32;;;;;;;8.20;4.70;;;21.30;99.90;;;;;;5034720;28;20097;-43
2024/03/13 07:11:57;;;;;;;7.30;4.43;;;21.30;99.90;;;;;;5034767;28;20386;-43
2024/03/13 07:14:24;;;;;;;7.43;4.15;;;21.30;99.90;;;;;;5034941;28;20101;-43
2024/03/13 07:16:50;;;;;;;8.07;4.75;;;21.30;99.90;;;;;;5034959;28;20033;-43
2024/03/13 07:19:15;;;;;;;6.72;3.92;;;21.40;99.90;;;;;;5034776;28;20374;-43
2024/03/13 07:21:41;;;;;;;6.53;4.55;;;21.30;99.90;;;;;;5034723;28;20021;-43
2024/03/13 07:24:07;;;;;;;4.72;3.83;;;21.30;99.90;;;;;;5034647;28;20028;-42
2024/03/13 07:26:33;;;;;;;6.15;4.47;;;21.30;99.90;;;;;;5034500;28;20057;-42
2024/03/13 07:29:04;;;;;;;5.63;3.95;;;21.40;99.90;;;;;;5034386;28;20084;-42
2024/03/13 07:31:30;;;;;;;7.35;5.13;;;21.30;99.90;;;;;;5034526;28;20456;-43
2024/03/13 07:33:57;;;;;;;7.57;4.55;;;21.40;99.90;;;;;;5034322;28;20026;-42
2024/03/13 07:36:23;;;;;;;5.10;3.83;;;21.40;99.90;;;;;;5034452;28;20075;-43
2024/03/13 07:38:49;;;;;;;6.97;4.38;;;21.40;99.90;;;;;;5034448;28;20030;-43
2024/03/13 07:41:15;;;;;;;5.65;4.05;;;21.40;99.90;;;;;;5034412;28;20563;-43
2024/03/13 07:43:42;;;;;;;4.68;3.38;;;21.40;99.90;;;;;;5034125;28;20028;-42
2024/03/13 07:46:09;;;;;;;7.18;4.13;;;21.40;99.90;;;;;;5034031;28;20497;-42
2024/03/13 07:48:38;;;;;;;5.93;4.07;;;21.40;99.90;;;;;;5034180;28;20037;-42
2024/03/13 07:51:06;;;;;;;6.63;4.03;;;21.40;99.90;;;;;;5016254;28;20040;-44
2024/03/13 07:53:33;;;;;;;6.90;3.92;;;21.50;99.90;;;;;;5033964;28;20025;-42
2024/03/13 07:55:59;;;;;;;6.63;3.80;;;21.40;99.90;;;;;;5034041;28;20033;-42
2024/03/13 07:58:25;;;;;;;6.40;3.95;;;21.40;99.90;;;;;;5034171;28;20397;-42
2024/03/13 08:00:52;;;;;;;4.25;3.28;;;21.40;99.90;;;;;;5033946;28;20064;-43
2024/03/13 08:03:18;;;;;;;6.28;3.60;;;21.50;99.90;;;;;;5033733;28;20386;-42
2024/03/13 08:05:44;;;;;;;5.65;3.05;;;21.50;99.90;;;;;;5033663;28;20038;-42
2024/03/13 08:08:10;;;;;;;5.88;3.63;;;21.50;99.90;;;;;;5033606;28;20029;-42
2024/03/13 08:10:37;;;;;;;6.28;3.72;;;21.50;99.90;;;;;;5033650;28;20040;-43
2024/03/13 08:13:05;;;;;;;5.97;4.10;;;21.50;99.90;;;;;;5033584;28;20029;-43
2024/03/13 08:15:30;;;;;;;;;;;21.50;99.90;;;;;;5034006;28;20425;-43
2024/03/13 08:17:58;;;;;;;5.90;3.80;;;21.50;99.90;;;;;;5033745;28;19912;-43
2024/03/13 08:20:27;;;;;;;4.88;3.83;;;21.50;99.90;;;;;;5033787;28;20359;-43
2024/03/13 08:22:53;;;;;;;6.07;3.63;;;21.50;99.90;;;;;;5033688;28;20543;-43
2024/03/13 08:25:22;;;;;;;4.68;3.33;;;21.50;99.90;;;;;;5033364;28;20026;-43
2024/03/13 08:27:48;;;;;;;7.00;3.47;;;21.50;99.90;;;;;;5033247;28;20042;-43
2024/03/13 08:30:20;;;;;;;4.45;3.35;;;21.50;99.90;;;;;;5033445;28;20100;-43
2024/03/13 08:32:51;;;;;;;6.30;3.85;;;21.50;99.90;;;;;;5015517;28;20026;-44
2024/03/13 08:35:17;;;;;;;8.60;4.18;;;21.50;99.90;;;;;;5031984;28;20104;-43
2024/03/13 08:37:43;;;;;;;5.63;4.10;;;21.50;99.90;;;;;;5033262;28;20021;-43
2024/03/13 08:40:11;;;;;;;5.38;3.65;;;21.50;99.90;;;;;;5033452;28;20028;-43
2024/03/13 08:42:40;;;;;;;4.75;3.22;;;21.50;99.90;;;;;;5033174;28;20078;-43
2024/03/13 08:45:13;;;;;;;4.53;3.40;;;21.50;99.90;;;;;;5015384;28;20017;-44
2024/03/13 08:47:39;;;;;;;4.88;3.47;;;21.50;99.90;;;;;;5032768;28;20052;-43
2024/03/13 08:50:06;;;;;;;6.25;3.53;;;21.50;99.90;;;;;;5033005;28;20430;-44
2024/03/13 08:52:34;;;;;;;5.05;3.35;;;21.60;99.90;;;;;;5032793;28;20022;-44
2024/03/13 08:55:01;;;;;;;4.18;2.75;;;21.50;99.90;;;;;;5032793;28;20021;-49
2024/03/13 08:57:28;;;;;;;4.05;3.00;;;21.50;99.90;;;;;;5033246;28;20036;-45
2024/03/13 08:59:55;;;;;;;5.40;3.22;;;21.60;99.90;;;;;;5032934;28;20029;-44
2024/03/13 09:02:21;;;;;;;4.28;2.70;;;21.60;99.90;;;;;;5032563;28;20080;-44
2024/03/13 09:04:48;;;;;;;4.53;3.10;;;21.60;99.90;;;;;;5032644;28;20049;-44
2024/03/13 09:07:14;;;;;;;5.53;3.25;;;21.60;99.90;;;;;;5032639;28;20029;-44
2024/03/13 09:09:40;;;;;;;4.32;2.97;;;21.60;99.90;;;;;;5032653;28;20033;-43
2024/03/13 09:12:07;;;;;;;5.97;2.60;;;21.60;99.90;;;;;;5015109;28;20084;-44
2024/03/13 09:14:38;;;;;;;5.28;3.42;;;21.60;99.90;;;;;;5015065;28;20021;-44
2024/03/13 09:17:08;;;;;;;7.00;3.50;;;21.60;99.90;;;;;;5032539;28;20088;-44
2024/03/13 09:19:37;;;;;;;7.63;3.60;;;21.60;99.90;;;;;;5032607;28;20022;-44
2024/03/13 09:22:11;;;;;;;4.25;2.90;;;21.60;99.90;;;;;;5032480;28;20109;-44
2024/03/13 09:24:39;;;;;;;6.40;3.83;;;21.60;99.90;;;;;;5032394;28;20414;-44
2024/03/13 09:27:06;;;;;;;5.03;3.30;;;21.60;99.90;;;;;;5032234;28;20467;-44
2024/03/13 09:29:35;;;;;;;4.82;2.97;;;21.60;99.90;;;;;;5018732;28;20058;-43
2024/03/13 09:32:00;;;;;;;4.95;3.40;;;21.70;99.90;;;;;;5017145;28;20026;-44
2024/03/13 09:34:29;;;;;;;4.75;3.15;;;21.70;99.90;;;;;;5032302;28;20092;-44
2024/03/13 09:36:55;;;;;;;6.55;3.10;;;21.70;99.90;;;;;;5031797;28;20354;-43
2024/03/13 09:39:21;;;;;;;4.15;3.42;;;21.70;99.90;;;;;;5032115;28;20389;-44
2024/03/13 09:41:47;;;;;;;4.75;3.35;;;21.60;99.90;;;;;;5031656;28;20400;-43
2024/03/13 09:44:15;;;;;;;8.00;3.78;;;21.70;99.90;;;;;;5031759;28;20389;-44
2024/03/13 09:46:44;;;;;;;6.43;3.60;;;21.70;99.90;;;;;;5031921;28;20054;-43
2024/03/13 09:49:11;;;;;;;7.25;4.43;;;21.70;99.90;;;;;;5031083;28;20535;-44
2024/03/13 09:51:38;;;;;;;5.07;3.75;;;21.70;99.90;;;;;;5013726;28;20382;-43
2024/03/13 09:54:07;;;;;;;8.20;4.47;;;21.70;99.90;;;;;;5031980;28;20037;-43
2024/03/13 09:56:35;;;;;;;7.75;4.70;;;21.70;99.90;;;;;;5014672;28;20575;-45
2024/03/13 09:59:04;;;;;;;7.95;5.30;;;21.70;99.90;;;;;;5034680;28;20405;-44
2024/03/13 10:01:37;;;;;;;8.05;5.22;;;21.70;99.90;;;;;;5036026;28;20409;-43
2024/03/13 10:04:12;;;;;;;10.52;6.05;;;21.70;99.90;;;;;;5019173;28;20018;-44
2024/03/13 10:06:43;;;;;;;7.93;5.10;;;21.80;99.90;;;;;;5035875;28;20069;-44
2024/03/13 10:09:13;;;;;;;9.10;6.00;;;21.80;99.90;;;;;;5035925;28;20032;-44
2024/03/13 10:11:46;;;;;;;8.82;5.93;;;21.80;99.90;;;;;;5018081;28;20390;-43
2024/03/13 10:14:12;;;;;;;9.40;6.55;;;21.80;99.90;;;;;;5035756;28;20026;-44
2024/03/13 10:16:42;;;;;;;8.57;5.57;;;21.80;99.90;;;;;;5035579;28;20024;-43
2024/03/13 10:19:12;;;;;;;8.60;6.00;;;21.80;99.90;;;;;;5035629;28;20017;-44
2024/03/13 10:21:40;;;;;;;9.05;6.15;;;21.90;99.90;;;;;;5035621;28;20382;-44
2024/03/13 10:24:08;;;;;;;8.55;5.85;;;21.90;99.90;;;;;;5035760;28;20052;-44
2024/03/13 10:26:40;;;;;;;8.45;5.35;;;21.90;99.90;;;;;;5035629;28;20030;-44
2024/03/13 10:29:09;;;;;;;9.02;5.90;;;22.00;99.90;;;;;;5035550;28;20022;-42
2024/03/13 10:31:38;;;;;;;7.65;5.47;;;22.00;99.90;;;;;;5035389;28;20025;-43
2024/03/13 10:34:08;;;;;;;9.40;6.40;;;22.00;99.90;;;;;;5035711;28;20049;-43
2024/03/13 10:36:37;;;;;;;8.90;5.80;;;22.00;99.90;;;;;;5035513;28;20059;-44
2024/03/13 10:39:08;;;;;;;10.70;5.95;;;22.10;99.90;;;;;;5035596;28;20033;-43
2024/03/13 10:41:34;;;;;;;8.23;5.45;;;22.10;99.90;;;;;;5017673;28;20083;-43
2024/03/13 10:44:00;;;;;;;6.68;5.32;;;22.10;99.90;;;;;;5035225;28;20029;-43
2024/03/13 10:46:26;;;;;;;10.95;5.68;;;22.10;99.90;;;;;;5035127;28;20037;-44
2024/03/13 10:48:52;;;;;;;11.25;6.32;;;22.10;99.90;;;;;;5035200;28;20064;-44
2024/03/13 10:51:21;;;;;;;8.35;5.40;;;22.10;99.90;;;;;;5035279;28;20049;-44
2024/03/13 10:53:47;;;;;;;10.20;5.60;;;22.10;99.90;;;;;;5034953;28;20151;-43
2024/03/13 10:56:14;;;;;;;8.45;5.78;;;22.10;99.90;;;;;;5017274;28;20112;-44
2024/03/13 10:58:42;;;;;;;7.00;5.53;;;22.10;99.90;;;;;;5035035;28;20037;-44
2024/03/13 11:01:16;;;;;;;10.05;5.63;;;22.10;99.90;;;;;;5034776;28;20278;-44
2024/03/13 11:03:43;;;;;;;11.82;5.55;;;22.20;99.90;;;;;;5034950;28;20017;-43
2024/03/13 11:06:13;;;;;;;7.85;5.97;;;22.10;99.90;;;;;;5034642;28;20014;-43
2024/03/13 11:08:41;;;;;;;11.35;5.30;;;22.20;99.90;;;;;;5034310;28;20080;-43
2024/03/13 11:11:14;;;;;;;8.32;5.18;;;22.20;99.90;;;;;;5034652;28;20532;-43
2024/03/13 11:13:53;;;;;;;9.02;5.72;;;22.20;99.90;;;;;;5034772;28;20060;-43
2024/03/13 11:16:21;;;;;;;7.03;5.20;;;22.20;99.90;;;;;;5034478;28;20480;-44
2024/03/13 11:18:50;;;;;;;8.50;5.05;;;22.20;99.90;;;;;;5017180;28;20064;-42
2024/03/13 11:21:50;;;;;;;7.88;5.47;;;22.20;99.90;;;;;;5034646;28;20021;-43
2024/03/13 11:24:25;;;;;;;9.07;5.47;;;22.20;99.90;;;;;;5034661;28;20024;-43
2024/03/13 11:26:52;;;;;;;9.77;5.47;;;22.20;99.90;;;;;;5000486;28;20508;-43
2024/03/13 11:29:27;;;;;;;9.68;5.57;;;22.20;99.90;;;;;;5034571;28;20021;-44
2024/03/13 11:31:54;;;;;;;9.63;5.93;;;22.20;99.90;;;;;;5034418;28;20052;-43
2024/03/13 11:34:24;;;;;;;9.80;5.43;;;22.20;99.90;;;;;;5034398;28;20021;-43
2024/03/13 11:36:51;;;;;;;9.52;5.40;;;22.20;99.90;;;;;;5016009;28;20026;-42
2024/03/13 11:39:18;;;;;;;6.90;5.35;;;22.20;99.90;;;;;;5033729;28;20079;-42
2024/03/13 11:41:44;;;;;;;9.77;5.50;;;22.30;99.90;;;;;;5033712;28;20076;-43
2024/03/13 11:44:16;;;;;;;7.72;4.78;;;22.30;99.90;;;;;;5013518;28;20025;-43
2024/03/13 11:46:49;;;;;;;7.43;4.70;;;22.30;99.90;;;;;;5016678;28;20038;-43
2024/03/13 11:49:15;;;;;;;13.32;5.72;;;22.30;99.90;;;;;;5034116;28;20032;-43
2024/03/13 11:52:04;;;;;;;9.45;5.68;;;22.30;99.90;;;;;;5015179;28;20021;-43
2024/03/13 11:54:30;;;;;;;16.73;5.07;;;22.30;99.90;;;;;;5030236;28;20108;-44
2024/03/13 11:57:12;;;;;;;10.25;4.75;;;22.40;99.90;;;;;;5033005;28;20440;-44
2024/03/13 11:59:42;;;;;;;9.10;4.70;;;22.40;99.90;;;;;;5033298;28;20025;-42
2024/03/13 12:02:31;;;;;;;10.25;4.80;;;22.40;99.90;;;;;;5033490;28;20046;-44
2024/03/13 12:05:06;;;;;;;9.65;4.68;;;22.40;99.90;;;;;;5033641;28;20504;-44
2024/03/13 12:07:42;;;;;;;8.30;4.95;;;22.50;99.90;;;;;;5015395;28;20041;-45
2024/03/13 12:10:17;;;;;;;9.73;4.95;;;22.50;99.90;;;;;;5032862;28;20095;-46
2024/03/13 12:12:43;;;;;;;16.65;4.78;;;22.50;99.90;;;;;;5031237;28;20018;-45
2024/03/13 12:15:10;;;;;;;8.73;5.13;;;22.60;99.90;;;;;;5033398;28;20052;-45
2024/03/13 12:17:37;;;;;;;8.07;4.38;;;22.50;99.90;;;;;;5033232;28;20014;-46
2024/03/13 12:20:03;;;;;;;7.70;4.20;;;22.60;99.90;;;;;;5032808;28;20327;-45
2024/03/13 12:22:30;;;;;;;5.60;3.88;;;22.60;99.90;;;;;;5032645;28;20497;-45
2024/03/13 12:24:56;;;;;;;5.78;4.05;;;22.60;99.90;;;;;;5032940;28;20022;-45
2024/03/13 12:27:24;;;;;;;6.55;4.22;;;22.70;99.90;;;;;;5015796;28;20044;-45
2024/03/13 12:29:50;;;;;;;7.60;3.25;;;22.70;99.90;;;;;;5032597;28;20013;-45
2024/03/13 12:32:16;;;;;;;4.22;2.33;;;22.70;99.90;;;;;;5015641;28;20040;-44
2024/03/13 12:34:45;;;;;;;5.10;1.50;;;22.70;99.90;;;;;;5033237;28;20080;-44
2024/03/13 12:37:16;;;;;;;9.02;3.70;;;22.70;99.90;;;;;;5033380;28;20033;-44
2024/03/13 12:39:42;;;;;;;5.13;2.20;;;22.70;99.90;;;;;;5033133;28;20058;-45
2024/03/13 12:42:09;;;;;;;8.38;1.85;;;22.70;99.90;;;;;;5033203;28;20065;-44
2024/03/13 12:44:36;;;;;;;6.75;1.75;;;22.80;99.90;;;;;;5030341;28;20022;-45
2024/03/13 12:47:03;;;;;;;5.80;1.40;;;22.70;99.90;;;;;;5029781;28;20042;-44
2024/03/13 12:49:31;;;;;;;3.80;1.63;;;22.70;99.90;;;;;;5032307;28;20026;-44
2024/03/13 12:51:59;;;;;;;3.67;1.80;;;22.70;99.90;;;;;;5032543;28;20117;-44
2024/03/13 12:54:26;;;;;;;5.50;1.80;;;22.70;99.90;;;;;;5031860;28;20044;-44
2024/03/13 12:56:52;;;;;;;4.38;2.10;;;22.80;99.90;;;;;;5033084;28;20080;-44
2024/03/13 12:59:21;;;;;;;4.72;1.98;;;22.80;99.90;;;;;;5014886;28;20025;-44
2024/03/13 13:01:49;;;;;;;4.60;2.20;;;22.80;99.90;;;;;;5014206;28;20044;-44
2024/03/13 13:04:15;;;;;;;6.40;1.80;;;22.80;99.90;;;;;;5031718;28;20031;-44
2024/03/13 13:06:41;;;;;;;6.63;1.70;;;22.80;99.90;;;;;;5032341;28;20033;-44